sensor_id;sensor_type;location;lat;lon;timestamp;P1;durP1;ratioP1;P2;durP2;ratioP2
16735;SDS011;17990;49.548;9.730;2023-10-13T00:01:46;16.80;;;7.43;;
16735;SDS011;17990;49.548;9.730;2023-10-13T00:04:14;10.67;;;6.90;;
16735;SDS011;17990;49.548;9.730;2023-10-13T00:06:40;12.93;;;6.83;;
16735;SDS011;17990;49.548;9.730;2023-10-13T00:09:10;9.63;;;6.90;;
16735;SDS011;17990;49.548;9.730;2023-10-13T00:11:41;9.07;;;6.60;;
16735;SDS011;17990;49.548;9.730;2023-10-13T00:14:10;12.40;;;7.20;;
16735;SDS011;17990;49.548;9.730;2023-10-13T00:16:39;9.40;;;6.73;;
16735;SDS011;17990;49.548;9.730;2023-10-13T00:19:07;10.17;;;6.57;;
16735;SDS011;17990;49.548;9.730;2023-10-13T00:21:38;10.83;;;7.00;;
16735;SDS011;17990;49.548;9.730;2023-10-13T00:24:07;11.50;;;7.40;;
16735;SDS011;17990;49.548;9.730;2023-10-13T00:26:38;11.27;;;7.07;;
16735;SDS011;17990;49.548;9.730;2023-10-13T00:29:08;13.73;;;7.57;;
16735;SDS011;17990;49.548;9.730;2023-10-13T00:31:41;11.50;;;7.27;;
16735;SDS011;17990;49.548;9.730;2023-10-13T00:34:10;13.37;;;7.87;;
16735;SDS011;17990;49.548;9.730;2023-10-13T00:36:37;15.60;;;8.53;;
16735;SDS011;17990;49.548;9.730;2023-10-13T00:39:13;11.17;;;8.00;;
16735;SDS011;17990;49.548;9.730;2023-10-13T00:41:41;15.83;;;8.50;;
16735;SDS011;17990;49.548;9.730;2023-10-13T00:44:17;13.00;;;8.57;;
16735;SDS011;17990;49.548;9.730;2023-10-13T00:46:51;18.97;;;10.50;;
16735;SDS011;17990;49.548;9.730;2023-10-13T00:49:22;13.33;;;8.90;;
16735;SDS011;17990;49.548;9.730;2023-10-13T00:51:49;13.07;;;9.50;;
16735;SDS011;17990;49.548;9.730;2023-10-13T00:54:16;12.73;;;8.23;;
16735;SDS011;17990;49.548;9.730;2023-10-13T00:56:51;11.60;;;8.23;;
16735;SDS011;17990;49.548;9.730;2023-10-13T00:59:22;15.40;;;7.47;;
16735;SDS011;17990;49.548;9.730;2023-10-13T01:01:51;12.00;;;7.50;;
16735;SDS011;17990;49.548;9.730;2023-10-13T01:04:20;12.80;;;7.20;;
16735;SDS011;17990;49.548;9.730;2023-10-13T01:06:51;12.67;;;7.23;;
16735;SDS011;17990;49.548;9.730;2023-10-13T01:09:17;11.10;;;6.97;;
16735;SDS011;17990;49.548;9.730;2023-10-13T01:11:44;12.80;;;7.43;;
16735;SDS011;17990;49.548;9.730;2023-10-13T01:14:11;13.43;;;7.23;;
16735;SDS011;17990;49.548;9.730;2023-10-13T01:16:40;10.50;;;6.87;;
16735;SDS011;17990;49.548;9.730;2023-10-13T01:19:08;12.30;;;7.67;;
16735;SDS011;17990;49.548;9.730;2023-10-13T01:21:37;15.33;;;7.47;;
16735;SDS011;17990;49.548;9.730;2023-10-13T01:24:07;13.67;;;7.77;;
16735;SDS011;17990;49.548;9.730;2023-10-13T01:26:35;12.77;;;8.07;;
16735;SDS011;17990;49.548;9.730;2023-10-13T01:29:03;12.30;;;7.63;;
16735;SDS011;17990;49.548;9.730;2023-10-13T01:31:37;12.93;;;8.07;;
16735;SDS011;17990;49.548;9.730;2023-10-13T01:34:02;11.77;;;7.70;;
16735;SDS011;17990;49.548;9.730;2023-10-13T01:36:29;12.30;;;7.83;;
16735;SDS011;17990;49.548;9.730;2023-10-13T01:39:00;12.67;;;7.83;;
16735;SDS011;17990;49.548;9.730;2023-10-13T01:41:29;14.87;;;8.80;;
16735;SDS011;17990;49.548;9.730;2023-10-13T01:43:56;14.97;;;8.03;;
16735;SDS011;17990;49.548;9.730;2023-10-13T01:46:23;13.10;;;7.80;;
16735;SDS011;17990;49.548;9.730;2023-10-13T01:48:48;13.10;;;8.23;;
16735;SDS011;17990;49.548;9.730;2023-10-13T01:51:19;11.50;;;7.80;;
16735;SDS011;17990;49.548;9.730;2023-10-13T01:53:48;9.30;;;6.77;;
16735;SDS011;17990;49.548;9.730;2023-10-13T01:56:21;13.20;;;7.67;;
16735;SDS011;17990;49.548;9.730;2023-10-13T01:58:49;13.33;;;7.67;;
16735;SDS011;17990;49.548;9.730;2023-10-13T02:01:17;14.53;;;8.10;;
16735;SDS011;17990;49.548;9.730;2023-10-13T02:03:51;18.83;;;8.00;;
16735;SDS011;17990;49.548;9.730;2023-10-13T02:06:26;13.10;;;7.33;;
16735;SDS011;17990;49.548;9.730;2023-10-13T02:08:57;11.90;;;7.63;;
16735;SDS011;17990;49.548;9.730;2023-10-13T02:11:30;11.23;;;7.43;;
16735;SDS011;17990;49.548;9.730;2023-10-13T02:13:58;10.77;;;7.23;;
16735;SDS011;17990;49.548;9.730;2023-10-13T02:16:26;11.60;;;7.37;;
16735;SDS011;17990;49.548;9.730;2023-10-13T02:18:52;13.47;;;7.70;;
16735;SDS011;17990;49.548;9.730;2023-10-13T02:21:19;12.53;;;7.30;;
16735;SDS011;17990;49.548;9.730;2023-10-13T02:23:45;14.40;;;7.57;;
16735;SDS011;17990;49.548;9.730;2023-10-13T02:26:24;18.50;;;7.80;;
16735;SDS011;17990;49.548;9.730;2023-10-13T02:28:58;12.17;;;7.60;;
16735;SDS011;17990;49.548;9.730;2023-10-13T02:31:26;11.93;;;7.53;;
16735;SDS011;17990;49.548;9.730;2023-10-13T02:33:54;12.43;;;7.67;;
16735;SDS011;17990;49.548;9.730;2023-10-13T02:36:20;13.10;;;8.23;;
16735;SDS011;17990;49.548;9.730;2023-10-13T02:39:01;14.77;;;8.10;;
16735;SDS011;17990;49.548;9.730;2023-10-13T02:41:32;15.40;;;7.93;;
16735;SDS011;17990;49.548;9.730;2023-10-13T02:44:03;12.37;;;7.77;;
16735;SDS011;17990;49.548;9.730;2023-10-13T02:46:32;12.67;;;8.17;;
16735;SDS011;17990;49.548;9.730;2023-10-13T02:49:01;13.57;;;8.10;;
16735;SDS011;17990;49.548;9.730;2023-10-13T02:51:35;12.80;;;8.10;;
16735;SDS011;17990;49.548;9.730;2023-10-13T02:54:01;11.90;;;8.30;;
16735;SDS011;17990;49.548;9.730;2023-10-13T02:56:33;13.93;;;9.27;;
16735;SDS011;17990;49.548;9.730;2023-10-13T02:58:59;15.40;;;8.60;;
16735;SDS011;17990;49.548;9.730;2023-10-13T03:01:31;14.27;;;8.07;;
16735;SDS011;17990;49.548;9.730;2023-10-13T03:03:59;14.30;;;8.47;;
16735;SDS011;17990;49.548;9.730;2023-10-13T03:06:27;18.37;;;8.60;;
16735;SDS011;17990;49.548;9.730;2023-10-13T03:08:57;13.33;;;8.40;;
16735;SDS011;17990;49.548;9.730;2023-10-13T03:11:25;14.93;;;9.33;;
16735;SDS011;17990;49.548;9.730;2023-10-13T03:13:57;10.97;;;8.23;;
16735;SDS011;17990;49.548;9.730;2023-10-13T03:16:24;13.90;;;8.33;;
16735;SDS011;17990;49.548;9.730;2023-10-13T03:19:03;15.83;;;8.53;;
16735;SDS011;17990;49.548;9.730;2023-10-13T03:21:33;13.03;;;8.93;;
16735;SDS011;17990;49.548;9.730;2023-10-13T03:24:01;14.60;;;8.60;;
16735;SDS011;17990;49.548;9.730;2023-10-13T03:26:32;15.73;;;8.57;;
16735;SDS011;17990;49.548;9.730;2023-10-13T03:29:00;17.20;;;8.93;;
16735;SDS011;17990;49.548;9.730;2023-10-13T03:31:29;13.80;;;8.80;;
16735;SDS011;17990;49.548;9.730;2023-10-13T03:34:02;15.07;;;9.43;;
16735;SDS011;17990;49.548;9.730;2023-10-13T03:36:36;14.80;;;9.07;;
16735;SDS011;17990;49.548;9.730;2023-10-13T03:39:23;13.60;;;8.90;;
16735;SDS011;17990;49.548;9.730;2023-10-13T03:41:55;16.33;;;9.60;;
16735;SDS011;17990;49.548;9.730;2023-10-13T03:44:24;15.53;;;9.30;;
16735;SDS011;17990;49.548;9.730;2023-10-13T03:46:55;15.90;;;9.43;;
16735;SDS011;17990;49.548;9.730;2023-10-13T03:49:31;15.97;;;9.40;;
16735;SDS011;17990;49.548;9.730;2023-10-13T03:52:03;16.00;;;9.20;;
16735;SDS011;17990;49.548;9.730;2023-10-13T03:54:30;14.87;;;9.13;;
16735;SDS011;17990;49.548;9.730;2023-10-13T03:57:00;15.97;;;10.00;;
16735;SDS011;17990;49.548;9.730;2023-10-13T03:59:35;13.57;;;10.17;;
16735;SDS011;17990;49.548;9.730;2023-10-13T04:02:03;16.47;;;10.73;;
16735;SDS011;17990;49.548;9.730;2023-10-13T04:04:38;15.83;;;9.93;;
16735;SDS011;17990;49.548;9.730;2023-10-13T04:07:13;15.70;;;9.77;;
16735;SDS011;17990;49.548;9.730;2023-10-13T04:09:57;12.93;;;8.90;;
16735;SDS011;17990;49.548;9.730;2023-10-13T04:12:40;12.77;;;9.27;;
16735;SDS011;17990;49.548;9.730;2023-10-13T04:15:24;14.37;;;9.27;;
16735;SDS011;17990;49.548;9.730;2023-10-13T04:18:02;13.27;;;9.17;;
16735;SDS011;17990;49.548;9.730;2023-10-13T04:20:40;15.80;;;9.83;;
16735;SDS011;17990;49.548;9.730;2023-10-13T04:23:11;15.40;;;9.57;;
16735;SDS011;17990;49.548;9.730;2023-10-13T04:25:51;13.43;;;9.10;;
16735;SDS011;17990;49.548;9.730;2023-10-13T04:28:33;15.17;;;9.53;;
16735;SDS011;17990;49.548;9.730;2023-10-13T04:31:15;16.73;;;9.37;;
16735;SDS011;17990;49.548;9.730;2023-10-13T04:34:10;15.03;;;9.40;;
16735;SDS011;17990;49.548;9.730;2023-10-13T04:36:46;13.63;;;9.27;;
16735;SDS011;17990;49.548;9.730;2023-10-13T04:39:20;19.43;;;10.60;;
16735;SDS011;17990;49.548;9.730;2023-10-13T04:41:54;15.70;;;10.80;;
16735;SDS011;17990;49.548;9.730;2023-10-13T04:44:36;13.53;;;9.30;;
16735;SDS011;17990;49.548;9.730;2023-10-13T04:47:13;16.10;;;10.00;;
16735;SDS011;17990;49.548;9.730;2023-10-13T04:49:47;14.23;;;9.60;;
16735;SDS011;17990;49.548;9.730;2023-10-13T04:52:18;15.80;;;10.47;;
16735;SDS011;17990;49.548;9.730;2023-10-13T04:55:16;17.50;;;11.70;;
16735;SDS011;17990;49.548;9.730;2023-10-13T04:57:49;18.33;;;11.07;;
16735;SDS011;17990;49.548;9.730;2023-10-13T05:00:25;19.43;;;11.77;;
16735;SDS011;17990;49.548;9.730;2023-10-13T05:03:09;21.20;;;11.50;;
16735;SDS011;17990;49.548;9.730;2023-10-13T05:05:54;19.07;;;12.63;;
16735;SDS011;17990;49.548;9.730;2023-10-13T05:08:39;17.97;;;11.80;;
16735;SDS011;17990;49.548;9.730;2023-10-13T05:11:24;19.37;;;11.57;;
16735;SDS011;17990;49.548;9.730;2023-10-13T05:14:08;17.77;;;11.97;;
16735;SDS011;17990;49.548;9.730;2023-10-13T05:16:52;18.70;;;11.90;;
16735;SDS011;17990;49.548;9.730;2023-10-13T05:19:36;17.63;;;11.53;;
16735;SDS011;17990;49.548;9.730;2023-10-13T05:22:20;18.27;;;11.97;;
16735;SDS011;17990;49.548;9.730;2023-10-13T05:25:06;22.77;;;12.30;;
16735;SDS011;17990;49.548;9.730;2023-10-13T05:27:51;19.43;;;11.70;;
16735;SDS011;17990;49.548;9.730;2023-10-13T05:30:35;20.53;;;11.80;;
16735;SDS011;17990;49.548;9.730;2023-10-13T05:33:19;17.83;;;11.27;;
16735;SDS011;17990;49.548;9.730;2023-10-13T05:36:08;21.63;;;13.17;;
16735;SDS011;17990;49.548;9.730;2023-10-13T05:38:54;18.47;;;12.70;;
16735;SDS011;17990;49.548;9.730;2023-10-13T05:41:40;23.07;;;13.57;;
16735;SDS011;17990;49.548;9.730;2023-10-13T05:47:46;18.37;;;11.27;;
16735;SDS011;17990;49.548;9.730;2023-10-13T05:50:18;14.90;;;10.07;;
16735;SDS011;17990;49.548;9.730;2023-10-13T05:53:14;13.50;;;9.17;;
16735;SDS011;17990;49.548;9.730;2023-10-13T05:56:01;14.90;;;9.67;;
16735;SDS011;17990;49.548;9.730;2023-10-13T05:58:45;13.20;;;9.37;;
16735;SDS011;17990;49.548;9.730;2023-10-13T06:01:29;22.43;;;9.60;;
16735;SDS011;17990;49.548;9.730;2023-10-13T06:04:13;15.10;;;9.57;;
16735;SDS011;17990;49.548;9.730;2023-10-13T06:06:57;15.47;;;9.90;;
16735;SDS011;17990;49.548;9.730;2023-10-13T06:09:41;14.03;;;9.27;;
16735;SDS011;17990;49.548;9.730;2023-10-13T06:12:26;14.70;;;9.43;;
16735;SDS011;17990;49.548;9.730;2023-10-13T06:15:12;13.57;;;10.33;;
16735;SDS011;17990;49.548;9.730;2023-10-13T06:18:01;13.13;;;8.97;;
16735;SDS011;17990;49.548;9.730;2023-10-13T06:20:46;10.23;;;8.00;;
16735;SDS011;17990;49.548;9.730;2023-10-13T06:23:30;10.53;;;7.30;;
16735;SDS011;17990;49.548;9.730;2023-10-13T06:26:15;14.87;;;8.20;;
16735;SDS011;17990;49.548;9.730;2023-10-13T06:28:59;10.47;;;7.57;;
16735;SDS011;17990;49.548;9.730;2023-10-13T06:31:27;24.43;;;13.03;;
16735;SDS011;17990;49.548;9.730;2023-10-13T06:33:54;16.00;;;10.10;;
16735;SDS011;17990;49.548;9.730;2023-10-13T06:36:21;15.90;;;8.17;;
16735;SDS011;17990;49.548;9.730;2023-10-13T06:38:48;10.90;;;8.00;;
16735;SDS011;17990;49.548;9.730;2023-10-13T06:41:41;11.87;;;7.63;;
16735;SDS011;17990;49.548;9.730;2023-10-13T06:44:08;12.83;;;7.00;;
16735;SDS011;17990;49.548;9.730;2023-10-13T06:46:41;13.17;;;8.03;;
16735;SDS011;17990;49.548;9.730;2023-10-13T06:49:09;15.13;;;6.73;;
16735;SDS011;17990;49.548;9.730;2023-10-13T06:51:38;12.07;;;7.43;;
16735;SDS011;17990;49.548;9.730;2023-10-13T06:54:05;12.57;;;7.00;;
16735;SDS011;17990;49.548;9.730;2023-10-13T06:56:36;13.63;;;7.23;;
16735;SDS011;17990;49.548;9.730;2023-10-13T06:59:05;9.97;;;6.43;;
16735;SDS011;17990;49.548;9.730;2023-10-13T07:01:32;10.83;;;6.33;;
16735;SDS011;17990;49.548;9.730;2023-10-13T07:04:06;10.37;;;6.63;;
16735;SDS011;17990;49.548;9.730;2023-10-13T07:06:38;10.37;;;6.17;;
16735;SDS011;17990;49.548;9.730;2023-10-13T07:09:09;11.33;;;6.23;;
16735;SDS011;17990;49.548;9.730;2023-10-13T07:11:54;11.07;;;5.90;;
16735;SDS011;17990;49.548;9.730;2023-10-13T07:14:26;9.70;;;6.40;;
16735;SDS011;17990;49.548;9.730;2023-10-13T07:16:55;7.93;;;5.73;;
16735;SDS011;17990;49.548;9.730;2023-10-13T07:19:25;9.33;;;5.20;;
16735;SDS011;17990;49.548;9.730;2023-10-13T07:21:54;12.63;;;5.50;;
16735;SDS011;17990;49.548;9.730;2023-10-13T07:24:24;10.50;;;5.40;;
16735;SDS011;17990;49.548;9.730;2023-10-13T07:26:53;17.87;;;14.33;;
16735;SDS011;17990;49.548;9.730;2023-10-13T07:29:28;15.13;;;10.93;;
16735;SDS011;17990;49.548;9.730;2023-10-13T07:31:55;9.17;;;5.87;;
16735;SDS011;17990;49.548;9.730;2023-10-13T07:34:23;13.63;;;7.53;;
16735;SDS011;17990;49.548;9.730;2023-10-13T07:36:56;9.57;;;5.23;;
16735;SDS011;17990;49.548;9.730;2023-10-13T07:39:25;11.30;;;7.40;;
16735;SDS011;17990;49.548;9.730;2023-10-13T07:41:58;6.73;;;5.37;;
16735;SDS011;17990;49.548;9.730;2023-10-13T07:44:31;22.17;;;14.63;;
16735;SDS011;17990;49.548;9.730;2023-10-13T07:46:58;14.83;;;8.30;;
16735;SDS011;17990;49.548;9.730;2023-10-13T07:49:29;9.37;;;6.37;;
16735;SDS011;17990;49.548;9.730;2023-10-13T07:52:00;13.43;;;6.20;;
16735;SDS011;17990;49.548;9.730;2023-10-13T07:54:41;7.67;;;4.97;;
16735;SDS011;17990;49.548;9.730;2023-10-13T07:57:09;10.23;;;6.00;;
16735;SDS011;17990;49.548;9.730;2023-10-13T07:59:39;9.32;;;5.38;;
16735;SDS011;17990;49.548;9.730;2023-10-13T08:02:12;7.07;;;4.97;;
16735;SDS011;17990;49.548;9.730;2023-10-13T08:05:00;9.05;;;5.13;;
16735;SDS011;17990;49.548;9.730;2023-10-13T08:07:29;10.48;;;5.10;;
16735;SDS011;17990;49.548;9.730;2023-10-13T08:09:56;6.93;;;4.40;;
16735;SDS011;17990;49.548;9.730;2023-10-13T08:12:24;4.63;;;3.88;;
16735;SDS011;17990;49.548;9.730;2023-10-13T08:14:51;8.13;;;5.03;;
16735;SDS011;17990;49.548;9.730;2023-10-13T08:17:36;7.72;;;4.57;;
16735;SDS011;17990;49.548;9.730;2023-10-13T08:20:10;9.25;;;4.07;;
16735;SDS011;17990;49.548;9.730;2023-10-13T08:22:38;8.85;;;4.60;;
16735;SDS011;17990;49.548;9.730;2023-10-13T08:25:11;8.52;;;4.13;;
16735;SDS011;17990;49.548;9.730;2023-10-13T08:27:45;7.60;;;3.92;;
16735;SDS011;17990;49.548;9.730;2023-10-13T08:30:15;7.15;;;4.13;;
16735;SDS011;17990;49.548;9.730;2023-10-13T08:32:53;9.43;;;3.50;;
16735;SDS011;17990;49.548;9.730;2023-10-13T08:35:23;7.35;;;4.10;;
16735;SDS011;17990;49.548;9.730;2023-10-13T08:38:03;8.93;;;4.15;;
16735;SDS011;17990;49.548;9.730;2023-10-13T08:40:30;5.60;;;4.07;;
16735;SDS011;17990;49.548;9.730;2023-10-13T08:43:14;7.47;;;4.10;;
16735;SDS011;17990;49.548;9.730;2023-10-13T08:45:42;7.22;;;3.45;;
16735;SDS011;17990;49.548;9.730;2023-10-13T08:48:25;5.95;;;3.60;;
16735;SDS011;17990;49.548;9.730;2023-10-13T08:50:59;7.97;;;4.03;;
16735;SDS011;17990;49.548;9.730;2023-10-13T08:53:36;9.15;;;3.78;;
16735;SDS011;17990;49.548;9.730;2023-10-13T08:56:11;10.73;;;3.45;;
16735;SDS011;17990;49.548;9.730;2023-10-13T08:58:43;6.88;;;3.67;;
16735;SDS011;17990;49.548;9.730;2023-10-13T09:01:40;5.15;;;3.13;;
16735;SDS011;17990;49.548;9.730;2023-10-13T09:04:13;6.63;;;3.08;;
16735;SDS011;17990;49.548;9.730;2023-10-13T09:06:48;5.40;;;2.95;;
16735;SDS011;17990;49.548;9.730;2023-10-13T09:09:47;5.55;;;3.15;;
16735;SDS011;17990;49.548;9.730;2023-10-13T09:12:32;8.15;;;3.10;;
16735;SDS011;17990;49.548;9.730;2023-10-13T09:15:04;5.38;;;2.83;;
16735;SDS011;17990;49.548;9.730;2023-10-13T09:17:43;8.75;;;3.10;;
16735;SDS011;17990;49.548;9.730;2023-10-13T09:20:13;4.10;;;2.40;;
16735;SDS011;17990;49.548;9.730;2023-10-13T09:22:58;9.10;;;3.28;;
16735;SDS011;17990;49.548;9.730;2023-10-13T09:25:33;4.97;;;2.55;;
16735;SDS011;17990;49.548;9.730;2023-10-13T09:28:02;8.48;;;3.10;;
16735;SDS011;17990;49.548;9.730;2023-10-13T09:30:41;7.70;;;3.10;;
16735;SDS011;17990;49.548;9.730;2023-10-13T09:33:08;3.83;;;2.80;;
16735;SDS011;17990;49.548;9.730;2023-10-13T09:35:34;6.78;;;3.20;;
16735;SDS011;17990;49.548;9.730;2023-10-13T09:38:03;6.32;;;3.53;;
16735;SDS011;17990;49.548;9.730;2023-10-13T09:40:30;5.97;;;3.42;;
16735;SDS011;17990;49.548;9.730;2023-10-13T09:42:59;8.20;;;3.13;;
16735;SDS011;17990;49.548;9.730;2023-10-13T09:45:32;7.82;;;2.63;;
16735;SDS011;17990;49.548;9.730;2023-10-13T09:48:02;8.98;;;2.83;;
16735;SDS011;17990;49.548;9.730;2023-10-13T09:50:31;7.28;;;3.28;;
16735;SDS011;17990;49.548;9.730;2023-10-13T09:53:03;7.22;;;2.95;;
16735;SDS011;17990;49.548;9.730;2023-10-13T09:55:35;8.50;;;3.05;;
16735;SDS011;17990;49.548;9.730;2023-10-13T09:58:04;6.47;;;3.25;;
16735;SDS011;17990;49.548;9.730;2023-10-13T10:00:37;5.75;;;2.70;;
16735;SDS011;17990;49.548;9.730;2023-10-13T10:03:21;4.90;;;3.15;;
16735;SDS011;17990;49.548;9.730;2023-10-13T10:06:05;7.70;;;3.58;;
16735;SDS011;17990;49.548;9.730;2023-10-13T10:08:33;5.88;;;2.65;;
16735;SDS011;17990;49.548;9.730;2023-10-13T10:11:14;7.47;;;3.15;;
16735;SDS011;17990;49.548;9.730;2023-10-13T10:13:52;7.65;;;2.67;;
16735;SDS011;17990;49.548;9.730;2023-10-13T10:16:28;6.75;;;3.13;;
16735;SDS011;17990;49.548;9.730;2023-10-13T10:19:02;4.93;;;2.80;;
16735;SDS011;17990;49.548;9.730;2023-10-13T10:21:33;6.25;;;2.70;;
16735;SDS011;17990;49.548;9.730;2023-10-13T10:24:02;8.45;;;3.60;;
16735;SDS011;17990;49.548;9.730;2023-10-13T10:26:49;5.63;;;2.67;;
16735;SDS011;17990;49.548;9.730;2023-10-13T10:29:17;5.22;;;2.78;;
16735;SDS011;17990;49.548;9.730;2023-10-13T10:31:44;5.53;;;2.80;;
16735;SDS011;17990;49.548;9.730;2023-10-13T10:34:12;7.13;;;2.70;;
16735;SDS011;17990;49.548;9.730;2023-10-13T10:36:44;7.30;;;2.80;;
16735;SDS011;17990;49.548;9.730;2023-10-13T10:39:14;8.13;;;2.70;;
16735;SDS011;17990;49.548;9.730;2023-10-13T10:41:42;4.38;;;2.70;;
16735;SDS011;17990;49.548;9.730;2023-10-13T10:44:17;5.38;;;2.55;;
16735;SDS011;17990;49.548;9.730;2023-10-13T10:46:47;6.25;;;2.50;;
16735;SDS011;17990;49.548;9.730;2023-10-13T10:49:22;8.77;;;3.15;;
16735;SDS011;17990;49.548;9.730;2023-10-13T10:51:55;4.63;;;2.78;;
16735;SDS011;17990;49.548;9.730;2023-10-13T10:54:27;4.63;;;2.70;;
16735;SDS011;17990;49.548;9.730;2023-10-13T10:56:57;7.10;;;3.05;;
16735;SDS011;17990;49.548;9.730;2023-10-13T10:59:35;5.15;;;3.10;;
16735;SDS011;17990;49.548;9.730;2023-10-13T11:02:03;5.50;;;2.75;;
16735;SDS011;17990;49.548;9.730;2023-10-13T11:04:31;4.05;;;3.00;;
16735;SDS011;17990;49.548;9.730;2023-10-13T11:07:00;6.82;;;2.70;;
16735;SDS011;17990;49.548;9.730;2023-10-13T11:09:29;8.38;;;3.10;;
16735;SDS011;17990;49.548;9.730;2023-10-13T11:12:08;4.72;;;3.08;;
16735;SDS011;17990;49.548;9.730;2023-10-13T11:14:40;6.07;;;3.00;;
16735;SDS011;17990;49.548;9.730;2023-10-13T11:17:08;5.72;;;2.70;;
16735;SDS011;17990;49.548;9.730;2023-10-13T11:19:46;8.55;;;3.30;;
16735;SDS011;17990;49.548;9.730;2023-10-13T11:22:13;4.85;;;2.50;;
16735;SDS011;17990;49.548;9.730;2023-10-13T11:24:59;6.65;;;2.47;;
16735;SDS011;17990;49.548;9.730;2023-10-13T11:27:34;8.07;;;2.83;;
16735;SDS011;17990;49.548;9.730;2023-10-13T11:30:21;8.10;;;2.70;;
16735;SDS011;17990;49.548;9.730;2023-10-13T11:32:58;6.53;;;3.05;;
16735;SDS011;17990;49.548;9.730;2023-10-13T11:35:26;3.95;;;2.35;;
16735;SDS011;17990;49.548;9.730;2023-10-13T11:40:51;6.10;;;3.15;;
16735;SDS011;17990;49.548;9.730;2023-10-13T11:43:37;4.60;;;2.78;;
16735;SDS011;17990;49.548;9.730;2023-10-13T11:46:26;8.02;;;2.90;;
16735;SDS011;17990;49.548;9.730;2023-10-13T11:49:11;4.57;;;2.80;;
16735;SDS011;17990;49.548;9.730;2023-10-13T11:51:44;7.57;;;3.35;;
16735;SDS011;17990;49.548;9.730;2023-10-13T11:54:13;9.15;;;3.35;;
16735;SDS011;17990;49.548;9.730;2023-10-13T11:56:41;5.65;;;2.85;;
16735;SDS011;17990;49.548;9.730;2023-10-13T11:59:08;7.97;;;3.00;;
16735;SDS011;17990;49.548;9.730;2023-10-13T12:01:42;7.65;;;3.58;;
16735;SDS011;17990;49.548;9.730;2023-10-13T12:04:27;6.32;;;2.72;;
16735;SDS011;17990;49.548;9.730;2023-10-13T12:07:05;7.30;;;3.03;;
16735;SDS011;17990;49.548;9.730;2023-10-13T12:09:45;11.05;;;3.17;;
16735;SDS011;17990;49.548;9.730;2023-10-13T12:12:29;7.45;;;2.92;;
16735;SDS011;17990;49.548;9.730;2023-10-13T12:15:07;8.38;;;2.85;;
16735;SDS011;17990;49.548;9.730;2023-10-13T12:17:50;7.40;;;3.15;;
16735;SDS011;17990;49.548;9.730;2023-10-13T12:20:17;7.35;;;3.28;;
16735;SDS011;17990;49.548;9.730;2023-10-13T12:22:57;11.23;;;3.25;;
16735;SDS011;17990;49.548;9.730;2023-10-13T12:25:35;8.13;;;3.40;;
16735;SDS011;17990;49.548;9.730;2023-10-13T12:28:21;8.32;;;3.10;;
16735;SDS011;17990;49.548;9.730;2023-10-13T12:30:50;5.72;;;2.85;;
16735;SDS011;17990;49.548;9.730;2023-10-13T12:33:18;6.75;;;3.20;;
16735;SDS011;17990;49.548;9.730;2023-10-13T12:35:58;4.20;;;2.90;;
16735;SDS011;17990;49.548;9.730;2023-10-13T12:38:55;6.40;;;2.80;;
16735;SDS011;17990;49.548;9.730;2023-10-13T12:41:43;6.60;;;3.03;;
16735;SDS011;17990;49.548;9.730;2023-10-13T12:44:34;4.28;;;3.08;;
16735;SDS011;17990;49.548;9.730;2023-10-13T12:47:39;5.90;;;2.97;;
16735;SDS011;17990;49.548;9.730;2023-10-13T12:50:23;10.75;;;3.53;;
16735;SDS011;17990;49.548;9.730;2023-10-13T12:53:08;5.30;;;3.22;;
16735;SDS011;17990;49.548;9.730;2023-10-13T12:55:39;5.93;;;2.97;;
16735;SDS011;17990;49.548;9.730;2023-10-13T12:58:06;7.22;;;3.20;;
16735;SDS011;17990;49.548;9.730;2023-10-13T13:00:34;5.35;;;2.60;;
16735;SDS011;17990;49.548;9.730;2023-10-13T13:03:01;8.65;;;2.83;;
16735;SDS011;17990;49.548;9.730;2023-10-13T13:05:36;5.53;;;3.00;;
16735;SDS011;17990;49.548;9.730;2023-10-13T13:08:09;4.97;;;2.90;;
16735;SDS011;17990;49.548;9.730;2023-10-13T13:10:37;6.60;;;2.80;;
16735;SDS011;17990;49.548;9.730;2023-10-13T13:13:06;6.00;;;2.90;;
16735;SDS011;17990;49.548;9.730;2023-10-13T13:15:35;8.35;;;3.28;;
16735;SDS011;17990;49.548;9.730;2023-10-13T13:18:02;4.50;;;2.72;;
16735;SDS011;17990;49.548;9.730;2023-10-13T13:20:36;5.70;;;2.85;;
16735;SDS011;17990;49.548;9.730;2023-10-13T13:23:09;8.13;;;3.20;;
16735;SDS011;17990;49.548;9.730;2023-10-13T13:25:37;5.82;;;2.88;;
16735;SDS011;17990;49.548;9.730;2023-10-13T13:28:07;13.77;;;3.10;;
16735;SDS011;17990;49.548;9.730;2023-10-13T13:30:36;4.97;;;2.80;;
16735;SDS011;17990;49.548;9.730;2023-10-13T13:33:04;5.72;;;2.90;;
16735;SDS011;17990;49.548;9.730;2023-10-13T13:35:36;8.02;;;3.42;;
16735;SDS011;17990;49.548;9.730;2023-10-13T13:38:03;6.25;;;3.03;;
16735;SDS011;17990;49.548;9.730;2023-10-13T13:40:36;6.13;;;2.65;;
16735;SDS011;17990;49.548;9.730;2023-10-13T13:43:03;5.68;;;2.90;;
16735;SDS011;17990;49.548;9.730;2023-10-13T13:45:31;5.57;;;2.83;;
16735;SDS011;17990;49.548;9.730;2023-10-13T13:48:01;6.13;;;2.70;;
16735;SDS011;17990;49.548;9.730;2023-10-13T13:50:32;5.15;;;3.03;;
16735;SDS011;17990;49.548;9.730;2023-10-13T13:53:06;6.20;;;2.70;;
16735;SDS011;17990;49.548;9.730;2023-10-13T13:55:34;4.68;;;2.78;;
16735;SDS011;17990;49.548;9.730;2023-10-13T13:58:01;7.03;;;2.97;;
16735;SDS011;17990;49.548;9.730;2023-10-13T14:00:33;7.38;;;3.10;;
16735;SDS011;17990;49.548;9.730;2023-10-13T14:03:04;8.77;;;3.05;;
16735;SDS011;17990;49.548;9.730;2023-10-13T14:05:39;5.75;;;2.75;;
16735;SDS011;17990;49.548;9.730;2023-10-13T14:08:07;4.88;;;2.40;;
16735;SDS011;17990;49.548;9.730;2023-10-13T14:10:36;5.03;;;2.92;;
16735;SDS011;17990;49.548;9.730;2023-10-13T14:13:26;7.70;;;2.88;;
16735;SDS011;17990;49.548;9.730;2023-10-13T14:16:12;9.98;;;2.88;;
16735;SDS011;17990;49.548;9.730;2023-10-13T14:18:43;5.40;;;2.70;;
16735;SDS011;17990;49.548;9.730;2023-10-13T14:21:11;8.60;;;2.78;;
16735;SDS011;17990;49.548;9.730;2023-10-13T14:23:42;5.20;;;3.00;;
16735;SDS011;17990;49.548;9.730;2023-10-13T14:26:11;6.13;;;2.47;;
16735;SDS011;17990;49.548;9.730;2023-10-13T14:28:38;6.43;;;2.50;;
16735;SDS011;17990;49.548;9.730;2023-10-13T14:31:15;9.13;;;3.13;;
16735;SDS011;17990;49.548;9.730;2023-10-13T14:33:45;9.75;;;2.90;;
16735;SDS011;17990;49.548;9.730;2023-10-13T14:36:12;5.63;;;2.55;;
16735;SDS011;17990;49.548;9.730;2023-10-13T14:38:42;7.05;;;2.67;;
16735;SDS011;17990;49.548;9.730;2023-10-13T14:41:09;7.35;;;2.85;;
16735;SDS011;17990;49.548;9.730;2023-10-13T14:43:36;7.20;;;2.35;;
16735;SDS011;17990;49.548;9.730;2023-10-13T14:46:07;5.78;;;2.88;;
16735;SDS011;17990;49.548;9.730;2023-10-13T14:48:34;8.98;;;2.67;;
16735;SDS011;17990;49.548;9.730;2023-10-13T14:51:05;6.90;;;2.47;;
16735;SDS011;17990;49.548;9.730;2023-10-13T14:53:37;6.57;;;3.15;;
16735;SDS011;17990;49.548;9.730;2023-10-13T14:56:08;4.93;;;2.35;;
16735;SDS011;17990;49.548;9.730;2023-10-13T14:58:36;8.02;;;2.85;;
16735;SDS011;17990;49.548;9.730;2023-10-13T15:01:09;4.70;;;2.40;;
16735;SDS011;17990;49.548;9.730;2023-10-13T15:03:38;6.20;;;2.55;;
16735;SDS011;17990;49.548;9.730;2023-10-13T15:06:07;7.97;;;3.03;;
16735;SDS011;17990;49.548;9.730;2023-10-13T15:08:34;8.00;;;2.90;;
16735;SDS011;17990;49.548;9.730;2023-10-13T15:11:07;4.72;;;2.42;;
16735;SDS011;17990;49.548;9.730;2023-10-13T15:13:37;5.75;;;3.00;;
16735;SDS011;17990;49.548;9.730;2023-10-13T15:16:12;5.63;;;2.80;;
16735;SDS011;17990;49.548;9.730;2023-10-13T15:18:40;6.63;;;2.45;;
16735;SDS011;17990;49.548;9.730;2023-10-13T15:21:08;6.78;;;2.50;;
16735;SDS011;17990;49.548;9.730;2023-10-13T15:23:34;8.38;;;2.60;;
16735;SDS011;17990;49.548;9.730;2023-10-13T15:26:07;7.13;;;2.72;;